Terminal Aerodrome Forecast
Issued by NWS Riverton, WY

Home | Current Version | Previous Version | Text Only | Print | Product List | Glossary On
Versions: 1 2 3 4 5 6 7 8 9 10 11 12 13
466
FTUS45 KRIW 041122
TAFRIW
TAF
KRIW 041122Z 0412/0512 25009KT P6SM SCT100
     FM050100 26013KT P6SM SCT100 WS020/26035KT
     FM050900 30022G30KT P6SM SCT070=

USA.gov is the U.S. government's official web portal to all federal, state and local government web resources and services.